createdAt,value
2019-04-13T00:00:20.694Z,1019.74
2019-04-13T00:01:20.717Z,1019.68
2019-04-13T00:02:20.722Z,1019.72
2019-04-13T00:03:20.733Z,1019.67
2019-04-13T00:04:29.299Z,1019.71
2019-04-13T00:05:20.759Z,1019.65
2019-04-13T00:06:20.771Z,1019.68
2019-04-13T00:07:20.785Z,1019.68
2019-04-13T00:08:20.797Z,1019.66
2019-04-13T00:09:20.812Z,1019.70
2019-04-13T00:10:20.821Z,1019.66
2019-04-13T00:11:20.841Z,1019.65
2019-04-13T00:12:20.851Z,1019.66
2019-04-13T00:13:20.863Z,1019.61
2019-04-13T00:14:20.874Z,1019.67
2019-04-13T00:15:20.887Z,1019.61
2019-04-13T00:16:20.900Z,1019.66
2019-04-13T00:17:20.913Z,1019.60
2019-04-13T00:18:20.925Z,1019.65
2019-04-13T00:19:20.939Z,1019.61
2019-04-13T00:20:20.951Z,1019.59
2019-04-13T00:21:20.966Z,1019.60
2019-04-13T00:22:20.976Z,1019.62
2019-04-13T00:23:20.989Z,1019.63
2019-04-13T00:24:21.005Z,1019.62
2019-04-13T00:25:21.017Z,1019.58
2019-04-13T00:26:21.031Z,1019.60
2019-04-13T00:27:21.042Z,1019.61
2019-04-13T00:28:21.058Z,1019.57
2019-04-13T00:29:21.070Z,1019.57
2019-04-13T00:30:21.081Z,1019.59
2019-04-13T00:31:21.095Z,1019.54
2019-04-13T00:32:21.109Z,1019.55
2019-04-13T00:33:21.126Z,1019.53
2019-04-13T00:34:21.132Z,1019.55
2019-04-13T00:35:21.146Z,1019.57
2019-04-13T00:36:21.164Z,1019.56
2019-04-13T00:37:21.256Z,1019.53
2019-04-13T00:38:21.259Z,1019.54
2019-04-13T00:39:21.248Z,1019.57
2019-04-13T00:40:21.252Z,1019.51
2019-04-13T00:41:21.249Z,1019.57
2019-04-13T00:42:21.320Z,1019.56
2019-04-13T00:43:21.315Z,1019.53
2019-04-13T00:44:21.319Z,1019.54
2019-04-13T00:45:21.307Z,1019.49
2019-04-13T00:46:21.311Z,1019.56
2019-04-13T00:47:21.311Z,1019.49
2019-04-13T00:48:21.317Z,1019.52
2019-04-13T00:49:21.327Z,1019.53
2019-04-13T00:50:21.335Z,1019.54
2019-04-13T00:51:21.356Z,1019.51
2019-04-13T00:52:21.969Z,1019.52
2019-04-13T00:53:21.378Z,1019.52
2019-04-13T00:54:21.389Z,1019.53
2019-04-13T00:55:21.403Z,1019.51
2019-04-13T00:56:21.417Z,1019.50
2019-04-13T00:57:21.429Z,1019.46
2019-04-13T00:58:21.443Z,1019.46
2019-04-13T00:59:21.453Z,1019.48
2019-04-13T01:00:21.468Z,1019.43
2019-04-13T01:01:21.481Z,1019.44
2019-04-13T01:02:21.491Z,1019.47
2019-04-13T01:03:21.505Z,1019.46
2019-04-13T01:04:21.518Z,1019.39
2019-04-13T01:05:21.531Z,1019.42
2019-04-13T01:06:21.543Z,1019.41
2019-04-13T01:07:21.554Z,1019.44
2019-04-13T01:08:21.572Z,1019.45
2019-04-13T01:09:21.582Z,1019.43
2019-04-13T01:10:21.593Z,1019.41
2019-04-13T01:11:21.605Z,1019.42
2019-04-13T01:12:21.621Z,1019.45
2019-04-13T01:13:21.634Z,1019.37
2019-04-13T01:14:21.645Z,1019.38
2019-04-13T01:15:21.658Z,1019.38
2019-04-13T01:16:21.670Z,1019.36
2019-04-13T01:17:21.685Z,1019.39
2019-04-13T01:18:21.700Z,1019.37
2019-04-13T01:19:21.709Z,1019.37
2019-04-13T01:20:21.723Z,1019.39
2019-04-13T01:21:21.738Z,1019.41
2019-04-13T01:22:21.745Z,1019.38
2019-04-13T01:23:21.760Z,1019.39
2019-04-13T01:24:21.775Z,1019.39
2019-04-13T01:25:21.785Z,1019.35
2019-04-13T01:26:21.796Z,1019.38
2019-04-13T01:27:21.815Z,1019.36
2019-04-13T01:28:21.823Z,1019.34
2019-04-13T01:29:21.835Z,1019.38
2019-04-13T01:30:21.850Z,1019.32
2019-04-13T01:31:21.862Z,1019.34
2019-04-13T01:32:21.875Z,1019.32
2019-04-13T01:33:21.891Z,1019.34
2019-04-13T01:34:21.901Z,1019.29
2019-04-13T01:35:21.911Z,1019.26
2019-04-13T01:36:21.926Z,1019.25
2019-04-13T01:37:21.940Z,1019.26
2019-04-13T01:38:21.952Z,1019.25
2019-04-13T01:39:21.966Z,1019.23
2019-04-13T01:40:21.977Z,1019.26
2019-04-13T01:41:21.996Z,1019.23
2019-04-13T01:42:22.005Z,1019.28
2019-04-13T01:43:22.019Z,1019.23
2019-04-13T01:44:22.027Z,1019.28
2019-04-13T01:45:22.039Z,1019.25
2019-04-13T01:46:22.052Z,1019.29
2019-04-13T01:47:22.065Z,1019.29
2019-04-13T01:48:22.077Z,1019.26
2019-04-13T01:49:22.091Z,1019.30
2019-04-13T01:50:22.106Z,1019.24
2019-04-13T01:51:22.118Z,1019.25
2019-04-13T01:52:22.129Z,1019.27
2019-04-13T01:53:22.140Z,1019.30
2019-04-13T01:54:22.157Z,1019.31
2019-04-13T01:55:22.172Z,1019.31
2019-04-13T01:56:22.182Z,1019.27
2019-04-13T01:57:22.194Z,1019.26
2019-04-13T01:58:22.205Z,1019.24
2019-04-13T01:59:22.223Z,1019.26
2019-04-13T02:00:22.231Z,1019.25
2019-04-13T02:01:22.245Z,1019.23
2019-04-13T02:02:22.256Z,1019.25
2019-04-13T02:03:22.274Z,1019.23
2019-04-13T02:04:22.280Z,1019.22
2019-04-13T02:05:22.293Z,1019.25
2019-04-13T02:06:22.358Z,1019.20
2019-04-13T02:07:22.331Z,1019.20
2019-04-13T02:08:22.334Z,1019.20
2019-04-13T02:09:22.347Z,1019.18
2019-04-13T02:10:22.358Z,1019.20
2019-04-13T02:11:22.371Z,1019.18
2019-04-13T02:12:22.382Z,1019.14
2019-04-13T02:13:22.398Z,1019.19
2019-04-13T02:14:22.409Z,1019.19
2019-04-13T02:15:22.421Z,1019.16
2019-04-13T02:16:22.434Z,1019.11
2019-04-13T02:17:22.447Z,1019.16
2019-04-13T02:18:22.460Z,1019.11
2019-04-13T02:19:22.474Z,1019.15
2019-04-13T02:20:22.487Z,1019.17
2019-04-13T02:21:22.498Z,1019.17
2019-04-13T02:22:22.514Z,1019.13
2019-04-13T02:23:22.523Z,1019.16
2019-04-13T02:24:22.540Z,1019.11
2019-04-13T02:25:22.549Z,1019.17
2019-04-13T02:26:22.560Z,1019.18
2019-04-13T02:27:22.574Z,1019.16
2019-04-13T02:28:22.585Z,1019.17
2019-04-13T02:29:22.601Z,1019.19
2019-04-13T02:30:22.622Z,1019.17
2019-04-13T02:31:22.627Z,1019.19
2019-04-13T02:32:22.640Z,1019.16
2019-04-13T02:33:22.650Z,1019.13
2019-04-13T02:34:22.664Z,1019.16
2019-04-13T02:35:34.418Z,1019.16
2019-04-13T02:36:22.688Z,1019.16
2019-04-13T02:37:22.704Z,1019.16
2019-04-13T02:38:22.714Z,1019.14
2019-04-13T02:39:22.742Z,1019.10
2019-04-13T02:40:22.753Z,1019.09
2019-04-13T02:41:22.753Z,1019.09
2019-04-13T02:42:22.763Z,1019.12
2019-04-13T02:43:22.776Z,1019.14
2019-04-13T02:44:22.791Z,1019.16
2019-04-13T02:45:22.804Z,1019.13
2019-04-13T02:46:22.817Z,1019.14
2019-04-13T02:47:22.825Z,1019.11
2019-04-13T02:48:22.841Z,1019.14
2019-04-13T02:49:22.862Z,1019.08
2019-04-13T02:50:22.864Z,1019.14
2019-04-13T02:51:22.880Z,1019.12
2019-04-13T02:52:22.890Z,1019.10
2019-04-13T02:53:22.903Z,1019.08
2019-04-13T02:54:22.913Z,1019.12
2019-04-13T02:55:22.927Z,1019.14
2019-04-13T02:56:22.943Z,1019.12
2019-04-13T02:57:22.952Z,1019.14
2019-04-13T02:58:22.964Z,1019.12
2019-04-13T02:59:22.976Z,1019.12
2019-04-13T03:00:23.007Z,1019.14
2019-04-13T03:01:23.076Z,1019.11
2019-04-13T03:02:23.077Z,1019.14
2019-04-13T03:03:23.074Z,1019.10
2019-04-13T03:04:23.076Z,1019.13
2019-04-13T03:05:23.075Z,1019.13
2019-04-13T03:06:23.135Z,1019.11
2019-04-13T03:07:23.130Z,1019.15
2019-04-13T03:08:23.131Z,1019.10
2019-04-13T03:09:23.134Z,1019.12
2019-04-13T03:10:23.127Z,1019.13
2019-04-13T03:11:23.156Z,1019.10
2019-04-13T03:12:23.136Z,1019.05
2019-04-13T03:13:23.150Z,1019.08
2019-04-13T03:14:23.160Z,1019.05
2019-04-13T03:15:23.172Z,1019.11
2019-04-13T03:16:23.193Z,1019.11
2019-04-13T03:17:23.200Z,1019.09
2019-04-13T03:18:23.215Z,1019.08
2019-04-13T03:19:23.225Z,1019.06
2019-04-13T03:20:23.237Z,1019.10
2019-04-13T03:21:23.247Z,1019.07
2019-04-13T03:22:23.261Z,1019.09
2019-04-13T03:23:23.274Z,1019.09
2019-04-13T03:24:23.291Z,1019.08
2019-04-13T03:25:23.297Z,1019.05
2019-04-13T03:26:23.312Z,1019.04
2019-04-13T03:27:23.322Z,1019.06
2019-04-13T03:28:23.336Z,1019.06
2019-04-13T03:29:23.349Z,1019.08
2019-04-13T03:30:23.364Z,1019.08
2019-04-13T03:31:23.455Z,1019.05
2019-04-13T03:32:23.388Z,1019.07
2019-04-13T03:33:23.400Z,1019.05
2019-04-13T03:34:23.410Z,1019.08
2019-04-13T03:35:23.425Z,1019.08
2019-04-13T03:36:23.436Z,1019.09
2019-04-13T03:37:23.447Z,1019.12
2019-04-13T03:38:23.460Z,1019.05
2019-04-13T03:39:23.474Z,1019.06
2019-04-13T03:40:23.486Z,1019.06
2019-04-13T03:41:23.497Z,1019.10
2019-04-13T03:42:23.508Z,1019.05
2019-04-13T03:43:23.519Z,1019.07
2019-04-13T03:44:23.534Z,1019.06
2019-04-13T03:45:23.550Z,1019.08
2019-04-13T03:46:23.558Z,1019.04
2019-04-13T03:47:23.573Z,1019.07
2019-04-13T03:48:23.583Z,1019.06
2019-04-13T03:49:23.600Z,1019.05
2019-04-13T03:50:23.607Z,1019.09
2019-04-13T03:51:23.620Z,1019.03
2019-04-13T03:52:23.634Z,1019.03
2019-04-13T03:53:23.648Z,1019.04
2019-04-13T03:54:23.659Z,1019.03
2019-04-13T03:55:23.668Z,1018.97
2019-04-13T03:56:23.682Z,1019.00
2019-04-13T03:57:23.695Z,1019.01
2019-04-13T03:58:23.708Z,1018.96
2019-04-13T03:59:23.719Z,1018.99
2019-04-13T04:00:23.731Z,1018.98
2019-04-13T04:01:23.745Z,1019.01
2019-04-13T04:02:23.754Z,1018.99
2019-04-13T04:03:23.768Z,1019.01
2019-04-13T04:04:23.782Z,1019.01
2019-04-13T04:05:23.792Z,1019.04
2019-04-13T04:06:23.805Z,1019.03
2019-04-13T04:07:23.817Z,1019.01
2019-04-13T04:08:23.831Z,1019.01
2019-04-13T04:09:23.845Z,1019.03
2019-04-13T04:10:23.859Z,1019.00
2019-04-13T04:11:23.865Z,1019.02
2019-04-13T04:12:23.880Z,1019.03
2019-04-13T04:13:23.890Z,1019.05
2019-04-13T04:14:23.905Z,1019.02
2019-04-13T04:15:23.917Z,1019.00
2019-04-13T04:16:23.930Z,1019.07
2019-04-13T04:17:23.943Z,1019.03
2019-04-13T04:18:23.955Z,1019.09
2019-04-13T04:19:23.972Z,1019.04
2019-04-13T04:20:23.979Z,1019.02
2019-04-13T04:21:23.991Z,1019.05
2019-04-13T04:22:24.002Z,1019.05
2019-04-13T04:23:24.017Z,1019.02
2019-04-13T04:24:24.026Z,1019.03
2019-04-13T04:25:24.039Z,1019.00
2019-04-13T04:26:24.055Z,1019.06
2019-04-13T04:27:24.065Z,1019.03
2019-04-13T04:28:24.077Z,1019.05
2019-04-13T04:29:24.089Z,1019.07
2019-04-13T04:30:24.098Z,1019.05
2019-04-13T04:31:24.114Z,1019.12
2019-04-13T04:32:24.124Z,1019.07
2019-04-13T04:33:24.139Z,1019.12
2019-04-13T04:34:24.150Z,1019.09
2019-04-13T04:35:24.163Z,1019.10
2019-04-13T04:36:24.380Z,1019.04
2019-04-13T04:37:24.190Z,1019.10
2019-04-13T04:38:24.202Z,1019.09
2019-04-13T04:39:24.215Z,1019.08
2019-04-13T04:40:24.225Z,1019.14
2019-04-13T04:41:24.237Z,1019.12
2019-04-13T04:42:24.249Z,1019.13
2019-04-13T04:43:24.269Z,1019.10
2019-04-13T04:44:24.274Z,1019.12
2019-04-13T04:45:24.287Z,1019.17
2019-04-13T04:46:24.299Z,1019.11
2019-04-13T04:47:24.312Z,1019.13
2019-04-13T04:48:24.372Z,1019.20
2019-04-13T04:49:24.337Z,1019.23
2019-04-13T04:50:24.347Z,1019.19
2019-04-13T04:51:24.360Z,1019.18
2019-04-13T04:52:24.373Z,1019.17
2019-04-13T04:53:24.387Z,1019.22
2019-04-13T04:54:24.396Z,1019.21
2019-04-13T04:55:24.411Z,1019.20
2019-04-13T04:56:24.423Z,1019.18
2019-04-13T04:57:24.436Z,1019.20
2019-04-13T04:58:24.453Z,1019.22
2019-04-13T04:59:24.487Z,1019.17
2019-04-13T05:00:24.473Z,1019.16
2019-04-13T05:01:24.487Z,1019.16
2019-04-13T05:02:24.496Z,1019.15
2019-04-13T05:03:24.510Z,1019.21
2019-04-13T05:04:24.526Z,1019.20
2019-04-13T05:05:24.536Z,1019.19
2019-04-13T05:06:35.430Z,1019.17
2019-04-13T05:07:24.560Z,1019.19
2019-04-13T05:08:24.580Z,1019.19
2019-04-13T05:09:24.586Z,1019.17
2019-04-13T05:10:24.598Z,1019.22
2019-04-13T05:11:24.608Z,1019.21
2019-04-13T05:12:24.623Z,1019.21
2019-04-13T05:13:24.634Z,1019.22
2019-04-13T05:14:24.647Z,1019.21
2019-04-13T05:15:24.659Z,1019.19
2019-04-13T05:16:24.674Z,1019.22
2019-04-13T05:17:24.691Z,1019.24
2019-04-13T05:18:24.701Z,1019.19
2019-04-13T05:19:24.712Z,1019.25
2019-04-13T05:20:24.726Z,1019.24
2019-04-13T05:21:24.739Z,1019.24
2019-04-13T05:22:26.644Z,1019.21
2019-04-13T05:23:24.764Z,1019.25
2019-04-13T05:24:24.776Z,1019.26
2019-04-13T05:25:24.789Z,1019.23
2019-04-13T05:26:24.825Z,1019.27
2019-04-13T05:27:24.861Z,1019.25
2019-04-13T05:28:24.888Z,1019.29
2019-04-13T05:29:24.905Z,1019.31
2019-04-13T05:30:24.894Z,1019.33
2019-04-13T05:31:24.893Z,1019.32
2019-04-13T05:32:24.918Z,1019.33
2019-04-13T05:33:24.955Z,1019.34
2019-04-13T05:34:24.957Z,1019.33
2019-04-13T05:35:24.942Z,1019.34
2019-04-13T05:36:24.949Z,1019.31
2019-04-13T05:37:24.942Z,1019.34
2019-04-13T05:38:24.955Z,1019.38
2019-04-13T05:39:24.967Z,1019.31
2019-04-13T05:40:24.981Z,1019.38
2019-04-13T05:41:24.993Z,1019.37
2019-04-13T05:42:25.007Z,1019.38
2019-04-13T05:43:25.016Z,1019.40
2019-04-13T05:44:25.031Z,1019.42
2019-04-13T05:45:25.046Z,1019.43
2019-04-13T05:46:25.059Z,1019.43
2019-04-13T05:47:25.071Z,1019.41
2019-04-13T05:48:25.085Z,1019.45
2019-04-13T05:49:25.100Z,1019.43
2019-04-13T05:50:25.110Z,1019.46
2019-04-13T05:51:25.123Z,1019.47
2019-04-13T05:52:25.135Z,1019.43
2019-04-13T05:53:25.150Z,1019.42
2019-04-13T05:54:25.160Z,1019.42
2019-04-13T05:55:25.175Z,1019.44
2019-04-13T05:56:25.191Z,1019.48
2019-04-13T05:57:25.204Z,1019.45
2019-04-13T05:58:25.216Z,1019.47
2019-04-13T05:59:25.228Z,1019.47
2019-04-13T06:00:25.241Z,1019.48
2019-04-13T06:01:25.254Z,1019.52
2019-04-13T06:02:25.267Z,1019.45
2019-04-13T06:03:25.282Z,1019.52
2019-04-13T06:04:25.296Z,1019.52
2019-04-13T06:05:25.310Z,1019.49
2019-04-13T06:06:25.319Z,1019.54
2019-04-13T06:07:25.333Z,1019.56
2019-04-13T06:08:25.346Z,1019.60
2019-04-13T06:09:27.054Z,1019.56
2019-04-13T06:10:25.371Z,1019.55
2019-04-13T06:11:25.384Z,1019.57
2019-04-13T06:12:25.399Z,1019.55
2019-04-13T06:13:25.417Z,1019.54
2019-04-13T06:14:25.427Z,1019.60
2019-04-13T06:15:25.441Z,1019.60
2019-04-13T06:16:25.452Z,1019.63
2019-04-13T06:17:25.465Z,1019.63
2019-04-13T06:18:25.476Z,1019.60
2019-04-13T06:19:25.491Z,1019.58
2019-04-13T06:20:25.506Z,1019.57
2019-04-13T06:21:25.520Z,1019.57
2019-04-13T06:22:25.532Z,1019.58
2019-04-13T06:23:25.547Z,1019.58
2019-04-13T06:24:25.559Z,1019.60
2019-04-13T06:25:29.522Z,1019.59
2019-04-13T06:26:25.586Z,1019.63
2019-04-13T06:27:25.599Z,1019.60
2019-04-13T06:28:25.614Z,1019.58
2019-04-13T06:29:25.629Z,1019.63
2019-04-13T06:30:25.641Z,1019.60
2019-04-13T06:31:25.656Z,1019.58
2019-04-13T06:32:25.668Z,1019.60
2019-04-13T06:33:25.689Z,1019.59
2019-04-13T06:34:25.700Z,1019.61
2019-04-13T06:35:25.711Z,1019.58
2019-04-13T06:36:25.723Z,1019.55
2019-04-13T06:37:25.742Z,1019.58
2019-04-13T06:38:25.750Z,1019.52
2019-04-13T06:39:25.767Z,1019.53
2019-04-13T06:40:25.780Z,1019.56
2019-04-13T06:41:25.794Z,1019.55
2019-04-13T06:42:25.806Z,1019.56
2019-04-13T06:43:27.275Z,1019.58
2019-04-13T06:44:25.844Z,1019.59
2019-04-13T06:45:25.854Z,1019.56
2019-04-13T06:46:25.866Z,1019.53
2019-04-13T06:47:25.879Z,1019.56
2019-04-13T06:48:25.895Z,1019.57
2019-04-13T06:49:25.911Z,1019.52
2019-04-13T06:50:25.919Z,1019.56
2019-04-13T06:51:25.936Z,1019.55
2019-04-13T06:52:25.949Z,1019.59
2019-04-13T06:53:25.965Z,1019.56
2019-04-13T06:54:25.977Z,1019.59
2019-04-13T06:55:25.991Z,1019.58
2019-04-13T06:56:26.006Z,1019.57
2019-04-13T06:57:28.964Z,1019.58
2019-04-13T06:58:26.037Z,1019.57
2019-04-13T06:59:26.053Z,1019.57
2019-04-13T07:00:26.067Z,1019.58
2019-04-13T07:01:26.081Z,1019.58
2019-04-13T07:02:26.094Z,1019.59
2019-04-13T07:03:26.665Z,1019.60
2019-04-13T07:04:26.124Z,1019.62
2019-04-13T07:05:28.238Z,1019.60
2019-04-13T07:06:26.385Z,1019.66
2019-04-13T07:07:26.168Z,1019.59
2019-04-13T07:08:37.681Z,1019.63
2019-04-13T07:09:27.184Z,1019.60
2019-04-13T07:10:31.075Z,1019.62
2019-04-13T07:11:26.225Z,1019.65
2019-04-13T07:12:30.803Z,1019.62
2019-04-13T07:13:26.256Z,1019.64
2019-04-13T07:14:26.274Z,1019.63
2019-04-13T07:15:30.198Z,1019.62
2019-04-13T07:16:26.303Z,1019.62
2019-04-13T07:17:26.320Z,1019.63
2019-04-13T07:18:26.330Z,1019.60
2019-04-13T07:19:26.346Z,1019.66
2019-04-13T07:20:26.362Z,1019.62
2019-04-13T07:21:26.377Z,1019.62
2019-04-13T07:22:26.392Z,1019.58
2019-04-13T07:23:26.405Z,1019.62
2019-04-13T07:24:28.481Z,1019.64
2019-04-13T07:25:26.442Z,1019.66
2019-04-13T07:26:26.456Z,1019.63
2019-04-13T07:27:26.467Z,1019.62
2019-04-13T07:28:26.486Z,1019.62
2019-04-13T07:29:26.499Z,1019.63
2019-04-13T07:30:26.515Z,1019.62
2019-04-13T07:31:26.530Z,1019.66
2019-04-13T07:32:26.546Z,1019.63
2019-04-13T07:33:26.562Z,1019.64
2019-04-13T07:34:26.574Z,1019.65
2019-04-13T07:35:26.590Z,1019.63
2019-04-13T07:36:26.605Z,1019.66
2019-04-13T07:37:36.235Z,1019.65
2019-04-13T07:38:26.639Z,1019.63
2019-04-13T07:39:26.680Z,1019.64
2019-04-13T07:40:26.721Z,1019.69
2019-04-13T07:41:31.086Z,1019.67
2019-04-13T07:42:26.723Z,1019.67
2019-04-13T07:43:26.801Z,1019.69
2019-04-13T07:44:26.786Z,1019.71
2019-04-13T07:45:26.784Z,1019.68
2019-04-13T07:46:26.789Z,1019.69
2019-04-13T07:47:26.793Z,1019.66
2019-04-13T07:48:26.791Z,1019.66
2019-04-13T07:49:26.811Z,1019.72
2019-04-13T07:50:26.823Z,1019.72
2019-04-13T07:51:26.842Z,1019.69
2019-04-13T07:52:29.165Z,1019.69
2019-04-13T07:53:26.869Z,1019.68
2019-04-13T07:54:26.889Z,1019.68
2019-04-13T07:55:26.904Z,1019.67
2019-04-13T07:56:31.295Z,1019.67
2019-04-13T07:57:26.935Z,1019.71
2019-04-13T07:58:26.950Z,1019.68
2019-04-13T07:59:26.965Z,1019.63
2019-04-13T08:00:28.018Z,1019.68
2019-04-13T08:01:26.999Z,1019.67
2019-04-13T08:02:27.016Z,1019.69
2019-04-13T08:03:27.033Z,1019.67
2019-04-13T08:04:27.049Z,1019.70
2019-04-13T08:05:27.064Z,1019.71
2019-04-13T08:06:27.084Z,1019.75
2019-04-13T08:07:27.098Z,1019.70
2019-04-13T08:08:38.961Z,1019.74
2019-04-13T08:09:27.130Z,1019.71
2019-04-13T08:10:27.146Z,1019.72
2019-04-13T08:11:27.163Z,1019.72
2019-04-13T08:12:27.189Z,1019.73
2019-04-13T08:13:27.197Z,1019.73
2019-04-13T08:14:27.214Z,1019.77
2019-04-13T08:15:27.227Z,1019.78
2019-04-13T08:16:27.247Z,1019.76
2019-04-13T08:17:27.264Z,1019.74
2019-04-13T08:18:27.286Z,1019.73
2019-04-13T08:19:27.303Z,1019.73
2019-04-13T08:20:29.463Z,1019.77
2019-04-13T08:21:27.332Z,1019.73
2019-04-13T08:22:27.348Z,1019.75
2019-04-13T08:23:27.363Z,1019.73
2019-04-13T08:24:27.382Z,1019.71
2019-04-13T08:25:27.408Z,1019.72
2019-04-13T08:26:27.416Z,1019.74
2019-04-13T08:27:27.434Z,1019.73
2019-04-13T08:28:27.454Z,1019.77
2019-04-13T08:29:27.468Z,1019.72
2019-04-13T08:30:27.493Z,1019.72
2019-04-13T08:31:27.501Z,1019.77
2019-04-13T08:32:29.543Z,1019.73
2019-04-13T08:33:27.540Z,1019.71
2019-04-13T08:34:27.553Z,1019.75
2019-04-13T08:35:27.572Z,1019.76
2019-04-13T08:36:27.592Z,1019.75
2019-04-13T08:37:27.607Z,1019.79
2019-04-13T08:38:28.704Z,1019.80
2019-04-13T08:39:27.643Z,1019.81
2019-04-13T08:40:27.660Z,1019.76
2019-04-13T08:41:27.679Z,1019.80
2019-04-13T08:42:27.780Z,1019.77
2019-04-13T08:43:32.023Z,1019.80
2019-04-13T08:44:27.733Z,1019.84
2019-04-13T08:45:27.749Z,1019.79
2019-04-13T08:46:28.246Z,1019.78
2019-04-13T08:47:27.786Z,1019.76
2019-04-13T08:48:27.801Z,1019.77
2019-04-13T08:49:27.820Z,1019.77
2019-04-13T08:50:27.837Z,1019.77
2019-04-13T08:51:27.854Z,1019.75
2019-04-13T08:52:27.873Z,1019.77
2019-04-13T08:53:27.891Z,1019.79
2019-04-13T08:54:27.909Z,1019.81
2019-04-13T08:55:27.925Z,1019.79
2019-04-13T08:56:30.942Z,1019.75
2019-04-13T08:57:27.964Z,1019.74
2019-04-13T08:58:28.242Z,1019.74
2019-04-13T08:59:28.942Z,1019.75
2019-04-13T09:00:28.016Z,1019.77
2019-04-13T09:01:28.037Z,1019.71
2019-04-13T09:02:28.056Z,1019.76
2019-04-13T09:03:28.072Z,1019.73
2019-04-13T09:04:28.090Z,1019.77
2019-04-13T09:05:28.111Z,1019.75
2019-04-13T09:06:28.129Z,1019.76
2019-04-13T09:07:28.146Z,1019.82
2019-04-13T09:08:29.553Z,1019.75
2019-04-13T09:09:28.183Z,1019.76
2019-04-13T09:10:30.169Z,1019.78
2019-04-13T09:11:28.911Z,1019.76
2019-04-13T09:12:28.236Z,1019.77
2019-04-13T09:13:31.252Z,1019.80
2019-04-13T09:14:30.306Z,1019.77
2019-04-13T09:15:28.768Z,1019.80
2019-04-13T09:16:30.188Z,1019.75
2019-04-13T09:17:31.336Z,1019.72
2019-04-13T09:18:29.622Z,1019.69
2019-04-13T09:19:29.285Z,1019.70
2019-04-13T09:20:28.399Z,1019.76
2019-04-13T09:21:29.614Z,1019.69
2019-04-13T09:22:28.426Z,1019.71
2019-04-13T09:23:31.225Z,1019.73
2019-04-13T09:24:28.460Z,1019.70
2019-04-13T09:25:29.134Z,1019.67
2019-04-13T09:26:28.500Z,1019.68
2019-04-13T09:27:28.595Z,1019.62
2019-04-13T09:28:28.611Z,1019.67
2019-04-13T09:29:28.591Z,1019.68
2019-04-13T09:30:28.656Z,1019.69
2019-04-13T09:31:28.647Z,1019.62
2019-04-13T09:32:30.748Z,1019.70
2019-04-13T09:33:28.647Z,1019.62
2019-04-13T09:34:32.972Z,1019.65
2019-04-13T09:35:28.671Z,1019.65
2019-04-13T09:36:29.012Z,1019.66
2019-04-13T09:37:32.634Z,1019.60
2019-04-13T09:38:41.393Z,1019.62
2019-04-13T09:39:28.745Z,1019.59
2019-04-13T09:40:30.700Z,1019.62
2019-04-13T09:41:28.790Z,1019.64
2019-04-13T09:42:28.806Z,1019.60
2019-04-13T09:43:28.826Z,1019.61
2019-04-13T09:44:31.135Z,1019.62
2019-04-13T09:45:28.870Z,1019.58
2019-04-13T09:46:28.880Z,1019.61
2019-04-13T09:47:28.906Z,1019.60
2019-04-13T09:48:28.922Z,1019.57
2019-04-13T09:49:28.941Z,1019.57
2019-04-13T09:50:28.965Z,1019.58
2019-04-13T09:51:28.980Z,1019.60
2019-04-13T09:52:31.177Z,1019.54
2019-04-13T09:53:29.019Z,1019.55
2019-04-13T09:54:29.040Z,1019.54
2019-04-13T09:55:29.061Z,1019.54
2019-04-13T09:56:37.179Z,1019.52
2019-04-13T09:57:29.205Z,1019.55
2019-04-13T09:58:29.117Z,1019.48
2019-04-13T09:59:29.139Z,1019.49
2019-04-13T10:00:29.158Z,1019.52
2019-04-13T10:01:31.137Z,1019.44
2019-04-13T10:02:29.195Z,1019.40
2019-04-13T10:03:29.261Z,1019.40
2019-04-13T10:04:29.237Z,1019.42
2019-04-13T10:05:29.413Z,1019.38
2019-04-13T10:06:29.273Z,1019.33
2019-04-13T10:07:29.296Z,1019.41
2019-04-13T10:08:29.315Z,1019.34
2019-04-13T10:09:29.337Z,1019.40
2019-04-13T10:10:29.355Z,1019.39
2019-04-13T10:11:29.375Z,1019.39
2019-04-13T10:12:29.395Z,1019.40
2019-04-13T10:13:29.417Z,1019.35
2019-04-13T10:14:29.440Z,1019.36
2019-04-13T10:15:29.456Z,1019.34
2019-04-13T10:16:29.479Z,1019.37
2019-04-13T10:17:29.500Z,1019.37
2019-04-13T10:18:29.517Z,1019.42
2019-04-13T10:19:31.745Z,1019.41
2019-04-13T10:20:29.555Z,1019.42
2019-04-13T10:21:29.579Z,1019.41
2019-04-13T10:22:29.597Z,1019.36
2019-04-13T10:23:30.006Z,1019.38
2019-04-13T10:24:29.640Z,1019.37
2019-04-13T10:25:29.660Z,1019.31
2019-04-13T10:26:29.680Z,1019.31
2019-04-13T10:27:29.698Z,1019.28
2019-04-13T10:28:29.721Z,1019.36
2019-04-13T10:29:29.743Z,1019.29
2019-04-13T10:30:29.762Z,1019.29
2019-04-13T10:31:29.791Z,1019.26
2019-04-13T10:32:31.173Z,1019.20
2019-04-13T10:33:29.826Z,1019.19
2019-04-13T10:34:29.849Z,1019.17
2019-04-13T10:35:29.867Z,1019.13
2019-04-13T10:36:29.887Z,1019.09
2019-04-13T10:37:29.907Z,1019.06
2019-04-13T10:38:29.927Z,1019.10
2019-04-13T10:39:29.947Z,1019.06
2019-04-13T10:40:29.970Z,1019.05
2019-04-13T10:41:29.991Z,1019.02
2019-04-13T10:42:33.577Z,1019.02
2019-04-13T10:43:30.030Z,1018.98
2019-04-13T10:44:30.053Z,1018.99
2019-04-13T10:45:30.071Z,1018.90
2019-04-13T10:46:30.091Z,1018.84
2019-04-13T10:47:30.123Z,1018.79
2019-04-13T10:48:30.135Z,1018.91
2019-04-13T10:49:34.437Z,1018.87
2019-04-13T10:50:30.173Z,1018.95
2019-04-13T10:51:30.688Z,1018.93
2019-04-13T10:52:30.212Z,1018.89
2019-04-13T10:53:30.233Z,1018.95
2019-04-13T10:54:30.250Z,1018.93
2019-04-13T10:55:30.272Z,1018.98
2019-04-13T10:56:30.290Z,1019.00
2019-04-13T10:57:30.313Z,1019.00
2019-04-13T10:58:30.327Z,1018.97
2019-04-13T10:59:30.345Z,1018.92
2019-04-13T11:00:33.069Z,1018.88
2019-04-13T11:01:30.393Z,1018.92
2019-04-13T11:02:30.477Z,1018.86
2019-04-13T11:03:30.477Z,1018.86
2019-04-13T11:04:30.469Z,1018.89
2019-04-13T11:05:30.536Z,1018.85
2019-04-13T11:06:30.529Z,1018.78
2019-04-13T11:07:32.412Z,1018.76
2019-04-13T11:08:30.529Z,1018.80
2019-04-13T11:09:30.567Z,1018.82
2019-04-13T11:10:32.422Z,1018.77
2019-04-13T11:11:30.577Z,1018.81
2019-04-13T11:12:30.596Z,1018.82
2019-04-13T11:13:30.619Z,1018.74
2019-04-13T11:14:30.635Z,1018.73
2019-04-13T11:15:30.655Z,1018.68
2019-04-13T11:16:30.673Z,1018.72
2019-04-13T11:17:30.695Z,1018.63
2019-04-13T11:18:30.709Z,1018.75
2019-04-13T11:19:30.729Z,1018.73
2019-04-13T11:20:30.750Z,1018.74
2019-04-13T11:21:30.767Z,1018.86
2019-04-13T11:22:30.786Z,1018.86
2019-04-13T11:23:36.386Z,1018.82
2019-04-13T11:24:30.823Z,1018.82
2019-04-13T11:25:30.846Z,1018.81
2019-04-13T11:26:30.859Z,1018.80
2019-04-13T11:27:30.879Z,1018.78
2019-04-13T11:28:30.898Z,1018.75
2019-04-13T11:29:30.916Z,1018.70
2019-04-13T11:30:31.170Z,1018.70
2019-04-13T11:31:30.954Z,1018.70
2019-04-13T11:32:31.607Z,1018.63
2019-04-13T11:33:30.991Z,1018.72
2019-04-13T11:34:31.010Z,1018.74
2019-04-13T11:35:35.375Z,1018.81
2019-04-13T11:36:31.047Z,1018.79
2019-04-13T11:37:32.390Z,1018.82
2019-04-13T11:38:31.097Z,1018.80
2019-04-13T11:39:34.209Z,1018.79
2019-04-13T11:40:31.124Z,1018.79
2019-04-13T11:41:31.141Z,1018.79
2019-04-13T11:42:31.160Z,1018.72
2019-04-13T11:43:31.178Z,1018.73
2019-04-13T11:44:31.259Z,1018.75
2019-04-13T11:45:31.214Z,1018.79
2019-04-13T11:46:31.237Z,1018.74
2019-04-13T11:47:31.254Z,1018.70
2019-04-13T11:48:31.273Z,1018.73
2019-04-13T11:49:31.291Z,1018.69
2019-04-13T11:50:31.310Z,1018.71
2019-04-13T11:51:32.228Z,1018.73
2019-04-13T11:52:31.350Z,1018.71
2019-04-13T11:53:31.367Z,1018.69
2019-04-13T11:54:31.387Z,1018.77
2019-04-13T11:55:33.978Z,1018.78
2019-04-13T11:56:31.428Z,1018.66
2019-04-13T11:57:31.447Z,1018.62
2019-04-13T11:58:31.464Z,1018.57
2019-04-13T11:59:31.487Z,1018.59
2019-04-13T12:00:31.505Z,1018.52
2019-04-13T12:01:31.523Z,1018.57
2019-04-13T12:02:31.543Z,1018.61
2019-04-13T12:03:31.563Z,1018.63
2019-04-13T12:04:31.582Z,1018.65
2019-04-13T12:05:32.062Z,1018.64